Nagqu, China
Current Conditions -  °F | °C
As of 3:50 PM on Thursday 23 Oct 2014 (Local Time) from VGHS Reporting Station
Haze Haze  
Wind Chill: 88°   Ceiling: Unl
Heat Index: 89°   Visibility: 3mi
Dew Point: 64°   Wind: 3mph
Humidity: 46%   Direction: 230°SW
Pressure: 29.83"   Gusts: NA
Location:  31.48°N, 92.07°E
Report Text: VGHS 230750Z 23003KT 5000 HZ SCT025 31/18 Q1010 NOSIG
Loading
Personal Weather Stations






























Interactive Weather Map
Tropical Storm Tracking
New forecast layout! Learn more

10-Day Weather Forecast

Advertisements
Track Severe Weather on mobile